This is the latest recevied weather packets stored in our database for station/object N7CEE-2. If no packets are shown the sender has not sent any weather packets the latest 10 day(s).
| Time | Temp. | Humidity | Pressure | Rain* | Wind** | Luminosity | Snow |
|---|---|---|---|---|---|---|---|
| 1777737845 | 27.78° C | 32% | 1017 hPa | 0 mm | - | 579 W/m² | - |
| 1777737543 | 27.78° C | 30% | 1017 hPa | 0 mm | - | 559 W/m² | - |
| 1777737241 | 27.78° C | 30% | 1016.8 hPa | 0 mm | - | 539 W/m² | - |
| 1777736937 | 27.78° C | 29% | 1017 hPa | 0 mm | - | 523 W/m² | - |
| 1777736026 | 27.78° C | 25% | 1016.9 hPa | 0 mm | - | 459 W/m² | - |
| 1777735723 | 27.78° C | 25% | 1016.8 hPa | 0 mm | - | 442 W/m² | - |
| 1777735420 | 27.78° C | 25% | 1016.6 hPa | 0 mm | - | 422 W/m² | - |
| 1777735118 | 27.22° C | 26% | 1016.6 hPa | 0 mm | - | 403 W/m² | - |
| 1777734814 | 27.78° C | 25% | 1016.5 hPa | 0 mm | - | 386 W/m² | - |
| 1777734512 | 27.22° C | 26% | 1016.6 hPa | 0 mm | - | 364 W/m² | - |
| 1777734208 | 26.67° C | 26% | 1016.8 hPa | 0 mm | - | 344 W/m² | - |
| 1777733905 | 26.67° C | 26% | 1016.6 hPa | 0 mm | - | 322 W/m² | - |
| 1777733602 | 26.67° C | 26% | 1016.5 hPa | 0 mm | - | 304 W/m² | - |
| 1777733298 | 26.11° C | 26% | 1016.6 hPa | 0 mm | - | 281 W/m² | - |
| 1777732995 | 25° C | 27% | 1016.3 hPa | 0 mm | - | 259 W/m² | - |
| 1777732691 | 25.56° C | 28% | 1016.5 hPa | 0 mm | - | 237 W/m² | - |
| 1777732388 | 25° C | 28% | 1016.3 hPa | 0 mm | - | 219 W/m² | - |
| 1777732086 | 24.44° C | 28% | 1016.3 hPa | 0 mm | - | 197 W/m² | - |
| 1777731783 | 24.44° C | 28% | 1016.2 hPa | 0 mm | - | 178 W/m² | - |
| 1777731479 | 23.89° C | 29% | 1016.2 hPa | 0 mm | - | 160 W/m² | - |
| 1777731178 | 23.33° C | 29% | 1016.2 hPa | 0 mm | - | 147 W/m² | - |
| 1777730875 | 23.33° C | 31% | 1015.9 hPa | 0 mm | - | 130 W/m² | - |
| 1777730573 | 23.33° C | 31% | 1016.1 hPa | 0 mm | - | 116 W/m² | - |
| 1777730268 | 23.33° C | 31% | 1016 hPa | 0 mm | - | 102 W/m² | - |
| 1777729965 | 22.78° C | 33% | 1015.8 hPa | 0 mm | - | 91 W/m² | - |
* Rain latest hour (hover to see other rain measurements)
** Current wind speed in m/s (hover to see current wind gust speed)